sensor_id;sensor_type;location;lat;lon;timestamp;temperature;humidity
40932;DHT22;36257;46.052;12.540;2023-06-05T00:02:02;19.00;99.90
40932;DHT22;36257;46.052;12.540;2023-06-05T00:04:27;19.00;99.90
40932;DHT22;36257;46.052;12.540;2023-06-05T00:06:54;18.90;99.90
40932;DHT22;36257;46.052;12.540;2023-06-05T00:09:20;18.90;99.90
40932;DHT22;36257;46.052;12.540;2023-06-05T00:11:46;18.90;99.90
40932;DHT22;36257;46.052;12.540;2023-06-05T00:14:11;18.90;99.90
40932;DHT22;36257;46.052;12.540;2023-06-05T00:16:37;18.90;99.90
40932;DHT22;36257;46.052;12.540;2023-06-05T00:19:03;18.90;99.90
40932;DHT22;36257;46.052;12.540;2023-06-05T00:21:29;18.90;99.90
40932;DHT22;36257;46.052;12.540;2023-06-05T00:23:55;18.90;99.90
40932;DHT22;36257;46.052;12.540;2023-06-05T00:26:21;18.90;99.90
40932;DHT22;36257;46.052;12.540;2023-06-05T00:28:47;18.80;99.90
40932;DHT22;36257;46.052;12.540;2023-06-05T00:31:13;18.70;99.90
40932;DHT22;36257;46.052;12.540;2023-06-05T00:33:39;18.60;99.90
40932;DHT22;36257;46.052;12.540;2023-06-05T00:36:05;18.60;99.90
40932;DHT22;36257;46.052;12.540;2023-06-05T00:38:31;18.50;99.90
40932;DHT22;36257;46.052;12.540;2023-06-05T00:40:56;18.40;99.90
40932;DHT22;36257;46.052;12.540;2023-06-05T00:43:22;18.40;99.90
40932;DHT22;36257;46.052;12.540;2023-06-05T00:45:49;18.30;99.90
40932;DHT22;36257;46.052;12.540;2023-06-05T00:48:16;18.30;99.90
40932;DHT22;36257;46.052;12.540;2023-06-05T00:50:42;18.30;99.90
40932;DHT22;36257;46.052;12.540;2023-06-05T00:53:07;18.40;99.90
40932;DHT22;36257;46.052;12.540;2023-06-05T00:55:34;18.40;99.90
40932;DHT22;36257;46.052;12.540;2023-06-05T00:58:01;18.40;99.90
40932;DHT22;36257;46.052;12.540;2023-06-05T01:00:28;18.30;99.90
40932;DHT22;36257;46.052;12.540;2023-06-05T01:02:54;18.30;99.90
40932;DHT22;36257;46.052;12.540;2023-06-05T01:05:22;18.20;99.90
40932;DHT22;36257;46.052;12.540;2023-06-05T01:07:48;18.20;99.90
40932;DHT22;36257;46.052;12.540;2023-06-05T01:10:14;18.20;99.90
40932;DHT22;36257;46.052;12.540;2023-06-05T01:12:50;18.20;99.90
40932;DHT22;36257;46.052;12.540;2023-06-05T01:15:19;18.30;99.90
40932;DHT22;36257;46.052;12.540;2023-06-05T01:17:57;18.20;99.90
40932;DHT22;36257;46.052;12.540;2023-06-05T01:20:38;18.20;99.90
40932;DHT22;36257;46.052;12.540;2023-06-05T01:23:05;18.10;99.90
40932;DHT22;36257;46.052;12.540;2023-06-05T01:25:31;18.00;99.90
40932;DHT22;36257;46.052;12.540;2023-06-05T01:28:16;18.00;99.90
40932;DHT22;36257;46.052;12.540;2023-06-05T01:31:31;18.10;99.90
40932;DHT22;36257;46.052;12.540;2023-06-05T01:33:57;18.00;99.90
40932;DHT22;36257;46.052;12.540;2023-06-05T01:36:28;18.00;99.90
40932;DHT22;36257;46.052;12.540;2023-06-05T01:38:55;18.00;99.90
40932;DHT22;36257;46.052;12.540;2023-06-05T01:41:22;18.10;99.90
40932;DHT22;36257;46.052;12.540;2023-06-05T01:43:48;18.10;99.90
40932;DHT22;36257;46.052;12.540;2023-06-05T01:46:18;18.00;99.90
40932;DHT22;36257;46.052;12.540;2023-06-05T01:48:45;18.00;99.90
40932;DHT22;36257;46.052;12.540;2023-06-05T01:51:11;18.00;99.90
40932;DHT22;36257;46.052;12.540;2023-06-05T01:53:36;18.00;99.90
40932;DHT22;36257;46.052;12.540;2023-06-05T01:56:03;17.90;99.90
40932;DHT22;36257;46.052;12.540;2023-06-05T01:58:28;17.90;99.90
40932;DHT22;36257;46.052;12.540;2023-06-05T02:00:54;17.80;99.90
40932;DHT22;36257;46.052;12.540;2023-06-05T02:03:22;17.90;99.90
40932;DHT22;36257;46.052;12.540;2023-06-05T02:05:48;17.90;99.90
40932;DHT22;36257;46.052;12.540;2023-06-05T02:08:14;17.80;99.90
40932;DHT22;36257;46.052;12.540;2023-06-05T02:10:42;17.80;99.90
40932;DHT22;36257;46.052;12.540;2023-06-05T02:13:08;17.80;99.90
40932;DHT22;36257;46.052;12.540;2023-06-05T02:15:34;17.80;99.90
40932;DHT22;36257;46.052;12.540;2023-06-05T02:18:01;17.90;99.90
40932;DHT22;36257;46.052;12.540;2023-06-05T02:20:28;17.90;99.90
40932;DHT22;36257;46.052;12.540;2023-06-05T02:22:54;17.90;99.90
40932;DHT22;36257;46.052;12.540;2023-06-05T02:25:21;17.90;99.90
40932;DHT22;36257;46.052;12.540;2023-06-05T02:27:51;17.80;99.90
40932;DHT22;36257;46.052;12.540;2023-06-05T02:30:17;17.80;99.90
40932;DHT22;36257;46.052;12.540;2023-06-05T02:32:42;17.70;99.90
40932;DHT22;36257;46.052;12.540;2023-06-05T02:35:11;17.80;99.90
40932;DHT22;36257;46.052;12.540;2023-06-05T02:37:38;17.80;99.90
40932;DHT22;36257;46.052;12.540;2023-06-05T02:40:09;17.70;99.90
40932;DHT22;36257;46.052;12.540;2023-06-05T02:42:36;17.70;99.90
40932;DHT22;36257;46.052;12.540;2023-06-05T02:45:02;17.70;99.90
40932;DHT22;36257;46.052;12.540;2023-06-05T02:47:28;17.60;99.90
40932;DHT22;36257;46.052;12.540;2023-06-05T02:49:54;17.60;99.90
40932;DHT22;36257;46.052;12.540;2023-06-05T02:52:20;17.60;99.90
40932;DHT22;36257;46.052;12.540;2023-06-05T02:54:46;17.60;99.90
40932;DHT22;36257;46.052;12.540;2023-06-05T02:57:12;17.60;99.90
40932;DHT22;36257;46.052;12.540;2023-06-05T02:59:39;17.60;99.90
40932;DHT22;36257;46.052;12.540;2023-06-05T03:02:08;17.60;99.90
40932;DHT22;36257;46.052;12.540;2023-06-05T03:04:34;17.70;99.90
40932;DHT22;36257;46.052;12.540;2023-06-05T03:07:00;17.70;99.90
40932;DHT22;36257;46.052;12.540;2023-06-05T03:09:30;17.60;99.90
40932;DHT22;36257;46.052;12.540;2023-06-05T03:11:56;17.60;99.90
40932;DHT22;36257;46.052;12.540;2023-06-05T03:14:22;17.50;99.90
40932;DHT22;36257;46.052;12.540;2023-06-05T03:16:48;17.40;99.90
40932;DHT22;36257;46.052;12.540;2023-06-05T03:19:13;17.40;99.90
40932;DHT22;36257;46.052;12.540;2023-06-05T03:21:40;17.40;99.90
40932;DHT22;36257;46.052;12.540;2023-06-05T03:24:11;17.50;99.90
40932;DHT22;36257;46.052;12.540;2023-06-05T03:26:41;17.60;99.90
40932;DHT22;36257;46.052;12.540;2023-06-05T03:29:07;17.60;99.90
40932;DHT22;36257;46.052;12.540;2023-06-05T03:31:33;17.60;99.90
40932;DHT22;36257;46.052;12.540;2023-06-05T03:33:59;17.50;99.90
40932;DHT22;36257;46.052;12.540;2023-06-05T03:36:26;17.50;99.90
40932;DHT22;36257;46.052;12.540;2023-06-05T03:38:53;17.50;99.90
40932;DHT22;36257;46.052;12.540;2023-06-05T03:41:19;17.40;99.90
40932;DHT22;36257;46.052;12.540;2023-06-05T03:43:45;17.30;99.90
40932;DHT22;36257;46.052;12.540;2023-06-05T03:46:11;17.30;99.90
40932;DHT22;36257;46.052;12.540;2023-06-05T03:48:43;17.30;99.90
40932;DHT22;36257;46.052;12.540;2023-06-05T03:51:09;17.20;99.90
40932;DHT22;36257;46.052;12.540;2023-06-05T03:53:35;17.20;99.90
40932;DHT22;36257;46.052;12.540;2023-06-05T03:56:05;17.10;99.90
40932;DHT22;36257;46.052;12.540;2023-06-05T03:58:31;17.00;99.90
40932;DHT22;36257;46.052;12.540;2023-06-05T04:00:56;17.00;99.90
40932;DHT22;36257;46.052;12.540;2023-06-05T04:03:23;17.00;99.90
40932;DHT22;36257;46.052;12.540;2023-06-05T04:05:48;16.90;99.90
40932;DHT22;36257;46.052;12.540;2023-06-05T04:08:14;16.90;99.90
40932;DHT22;36257;46.052;12.540;2023-06-05T04:10:40;17.00;99.90
40932;DHT22;36257;46.052;12.540;2023-06-05T04:13:06;17.00;99.90
40932;DHT22;36257;46.052;12.540;2023-06-05T04:15:32;17.00;99.90
40932;DHT22;36257;46.052;12.540;2023-06-05T04:17:59;17.00;99.90
40932;DHT22;36257;46.052;12.540;2023-06-05T04:20:25;17.00;99.90
40932;DHT22;36257;46.052;12.540;2023-06-05T04:22:51;17.10;99.90
40932;DHT22;36257;46.052;12.540;2023-06-05T04:25:16;17.10;99.90
40932;DHT22;36257;46.052;12.540;2023-06-05T04:27:43;17.20;99.90
40932;DHT22;36257;46.052;12.540;2023-06-05T04:30:11;17.10;99.90
40932;DHT22;36257;46.052;12.540;2023-06-05T04:32:38;17.10;99.90
40932;DHT22;36257;46.052;12.540;2023-06-05T04:35:09;17.00;99.90
40932;DHT22;36257;46.052;12.540;2023-06-05T04:37:35;17.00;99.90
40932;DHT22;36257;46.052;12.540;2023-06-05T04:40:02;17.00;99.90
40932;DHT22;36257;46.052;12.540;2023-06-05T04:42:35;17.10;99.90
40932;DHT22;36257;46.052;12.540;2023-06-05T04:45:03;17.10;99.90
40932;DHT22;36257;46.052;12.540;2023-06-05T04:47:31;17.10;99.90
40932;DHT22;36257;46.052;12.540;2023-06-05T04:50:01;17.10;99.90
40932;DHT22;36257;46.052;12.540;2023-06-05T04:52:32;17.10;99.90
40932;DHT22;36257;46.052;12.540;2023-06-05T04:55:02;17.20;99.90
40932;DHT22;36257;46.052;12.540;2023-06-05T04:57:28;17.30;99.90
40932;DHT22;36257;46.052;12.540;2023-06-05T04:59:55;17.30;99.90
40932;DHT22;36257;46.052;12.540;2023-06-05T05:02:22;17.30;99.90
40932;DHT22;36257;46.052;12.540;2023-06-05T05:04:48;17.30;99.90
40932;DHT22;36257;46.052;12.540;2023-06-05T05:07:13;17.30;99.90
40932;DHT22;36257;46.052;12.540;2023-06-05T05:09:42;17.40;99.90
40932;DHT22;36257;46.052;12.540;2023-06-05T05:12:08;17.40;99.90
40932;DHT22;36257;46.052;12.540;2023-06-05T05:14:35;17.40;99.90
40932;DHT22;36257;46.052;12.540;2023-06-05T05:17:01;17.50;99.90
40932;DHT22;36257;46.052;12.540;2023-06-05T05:19:28;17.50;99.90
40932;DHT22;36257;46.052;12.540;2023-06-05T05:21:53;17.60;99.90
40932;DHT22;36257;46.052;12.540;2023-06-05T05:24:19;17.60;99.90
40932;DHT22;36257;46.052;12.540;2023-06-05T05:26:45;17.60;99.90
40932;DHT22;36257;46.052;12.540;2023-06-05T05:29:10;17.60;99.90
40932;DHT22;36257;46.052;12.540;2023-06-05T05:31:36;17.60;99.90
40932;DHT22;36257;46.052;12.540;2023-06-05T05:34:02;17.70;99.90
40932;DHT22;36257;46.052;12.540;2023-06-05T05:36:28;17.70;99.90
40932;DHT22;36257;46.052;12.540;2023-06-05T05:38:54;17.80;99.90
40932;DHT22;36257;46.052;12.540;2023-06-05T05:41:20;17.80;99.90
40932;DHT22;36257;46.052;12.540;2023-06-05T05:43:48;17.90;99.90
40932;DHT22;36257;46.052;12.540;2023-06-05T06:02:26;18.10;99.90
40932;DHT22;36257;46.052;12.540;2023-06-05T06:04:53;18.10;99.90
40932;DHT22;36257;46.052;12.540;2023-06-05T06:59:12;17.90;99.90
40932;DHT22;36257;46.052;12.540;2023-06-05T07:01:44;17.80;99.90
40932;DHT22;36257;46.052;12.540;2023-06-05T07:04:14;17.80;99.90
40932;DHT22;36257;46.052;12.540;2023-06-05T07:06:48;17.80;99.90
40932;DHT22;36257;46.052;12.540;2023-06-05T07:09:14;17.70;99.90
40932;DHT22;36257;46.052;12.540;2023-06-05T07:11:40;17.70;99.90
40932;DHT22;36257;46.052;12.540;2023-06-05T07:14:06;17.70;99.90
40932;DHT22;36257;46.052;12.540;2023-06-05T07:16:33;17.70;99.90
40932;DHT22;36257;46.052;12.540;2023-06-05T07:18:59;17.70;99.90
40932;DHT22;36257;46.052;12.540;2023-06-05T07:21:24;17.60;99.90
40932;DHT22;36257;46.052;12.540;2023-06-05T07:23:50;17.60;99.90
40932;DHT22;36257;46.052;12.540;2023-06-05T07:26:20;17.60;99.90
40932;DHT22;36257;46.052;12.540;2023-06-05T07:28:47;17.60;99.90
40932;DHT22;36257;46.052;12.540;2023-06-05T07:31:13;17.60;99.90
40932;DHT22;36257;46.052;12.540;2023-06-05T07:33:39;17.60;99.90
40932;DHT22;36257;46.052;12.540;2023-06-05T07:36:06;17.60;99.90
40932;DHT22;36257;46.052;12.540;2023-06-05T07:38:33;17.60;99.90
40932;DHT22;36257;46.052;12.540;2023-06-05T07:40:59;17.70;99.90
40932;DHT22;36257;46.052;12.540;2023-06-05T07:43:27;17.60;99.90
40932;DHT22;36257;46.052;12.540;2023-06-05T07:45:53;17.70;99.90
40932;DHT22;36257;46.052;12.540;2023-06-05T07:48:19;17.70;99.90
40932;DHT22;36257;46.052;12.540;2023-06-05T07:50:45;17.60;99.90
40932;DHT22;36257;46.052;12.540;2023-06-05T07:53:11;17.60;99.90
40932;DHT22;36257;46.052;12.540;2023-06-05T07:55:37;17.60;99.90
40932;DHT22;36257;46.052;12.540;2023-06-05T07:58:02;17.70;99.90
40932;DHT22;36257;46.052;12.540;2023-06-05T08:00:28;17.80;99.90
40932;DHT22;36257;46.052;12.540;2023-06-05T08:02:54;17.80;99.90
40932;DHT22;36257;46.052;12.540;2023-06-05T08:05:20;17.90;99.90
40932;DHT22;36257;46.052;12.540;2023-06-05T08:07:46;17.90;99.90
40932;DHT22;36257;46.052;12.540;2023-06-05T08:10:13;18.00;99.90
40932;DHT22;36257;46.052;12.540;2023-06-05T08:12:39;18.00;99.90
40932;DHT22;36257;46.052;12.540;2023-06-05T08:15:05;18.10;99.90
40932;DHT22;36257;46.052;12.540;2023-06-05T08:17:31;18.10;99.90
40932;DHT22;36257;46.052;12.540;2023-06-05T08:19:57;18.20;99.90
40932;DHT22;36257;46.052;12.540;2023-06-05T08:22:23;18.30;99.90
40932;DHT22;36257;46.052;12.540;2023-06-05T08:24:49;18.20;99.90
40932;DHT22;36257;46.052;12.540;2023-06-05T08:27:17;18.20;99.90
40932;DHT22;36257;46.052;12.540;2023-06-05T08:34:54;18.20;99.90
40932;DHT22;36257;46.052;12.540;2023-06-05T08:37:20;18.20;99.90
40932;DHT22;36257;46.052;12.540;2023-06-05T08:39:46;18.20;99.90
40932;DHT22;36257;46.052;12.540;2023-06-05T08:42:12;18.30;99.90
40932;DHT22;36257;46.052;12.540;2023-06-05T08:44:40;18.20;99.90
40932;DHT22;36257;46.052;12.540;2023-06-05T08:47:08;18.30;99.90
40932;DHT22;36257;46.052;12.540;2023-06-05T08:49:35;18.30;99.90
40932;DHT22;36257;46.052;12.540;2023-06-05T08:52:05;18.30;99.90
40932;DHT22;36257;46.052;12.540;2023-06-05T08:54:37;18.50;99.90
40932;DHT22;36257;46.052;12.540;2023-06-05T08:57:04;18.60;99.90
40932;DHT22;36257;46.052;12.540;2023-06-05T08:59:30;18.60;99.90
40932;DHT22;36257;46.052;12.540;2023-06-05T09:01:56;18.60;99.90
40932;DHT22;36257;46.052;12.540;2023-06-05T09:04:23;18.60;99.90
40932;DHT22;36257;46.052;12.540;2023-06-05T09:06:56;18.60;99.90
40932;DHT22;36257;46.052;12.540;2023-06-05T09:09:23;18.60;99.90
40932;DHT22;36257;46.052;12.540;2023-06-05T09:12:01;18.60;99.90
40932;DHT22;36257;46.052;12.540;2023-06-05T09:14:28;18.70;99.90
40932;DHT22;36257;46.052;12.540;2023-06-05T09:16:54;18.60;99.90
40932;DHT22;36257;46.052;12.540;2023-06-05T09:19:20;18.70;99.90
40932;DHT22;36257;46.052;12.540;2023-06-05T09:21:54;18.80;99.90
40932;DHT22;36257;46.052;12.540;2023-06-05T12:44:54;24.30;81.00
40932;DHT22;36257;46.052;12.540;2023-06-05T12:47:20;24.40;80.90
40932;DHT22;36257;46.052;12.540;2023-06-05T12:49:47;24.40;79.40
40932;DHT22;36257;46.052;12.540;2023-06-05T12:52:12;24.30;79.50
40932;DHT22;36257;46.052;12.540;2023-06-05T12:54:38;24.10;81.40
40932;DHT22;36257;46.052;12.540;2023-06-05T12:57:07;24.00;80.40
40932;DHT22;36257;46.052;12.540;2023-06-05T12:59:33;23.90;81.40
40932;DHT22;36257;46.052;12.540;2023-06-05T13:01:59;23.70;82.10
40932;DHT22;36257;46.052;12.540;2023-06-05T13:04:25;23.60;82.80
40932;DHT22;36257;46.052;12.540;2023-06-05T13:06:50;23.50;81.70
40932;DHT22;36257;46.052;12.540;2023-06-05T13:09:16;23.40;82.00
40932;DHT22;36257;46.052;12.540;2023-06-05T13:11:43;23.40;82.00
40932;DHT22;36257;46.052;12.540;2023-06-05T13:14:09;23.30;81.20
40932;DHT22;36257;46.052;12.540;2023-06-05T13:16:34;23.30;82.80
40932;DHT22;36257;46.052;12.540;2023-06-05T13:19:00;23.30;82.90
40932;DHT22;36257;46.052;12.540;2023-06-05T13:21:26;23.30;84.30
40932;DHT22;36257;46.052;12.540;2023-06-05T13:23:52;23.20;83.70
40932;DHT22;36257;46.052;12.540;2023-06-05T13:26:18;23.20;84.70
40932;DHT22;36257;46.052;12.540;2023-06-05T13:28:43;23.30;84.60
40932;DHT22;36257;46.052;12.540;2023-06-05T13:31:12;23.30;84.70
40932;DHT22;36257;46.052;12.540;2023-06-05T13:33:39;23.30;83.80
40932;DHT22;36257;46.052;12.540;2023-06-05T13:36:06;23.20;85.10
40932;DHT22;36257;46.052;12.540;2023-06-05T13:38:32;23.30;85.30
40932;DHT22;36257;46.052;12.540;2023-06-05T13:40:58;23.30;83.60
40932;DHT22;36257;46.052;12.540;2023-06-05T13:43:23;23.20;83.50
40932;DHT22;36257;46.052;12.540;2023-06-05T13:45:49;23.10;84.10
40932;DHT22;36257;46.052;12.540;2023-06-05T13:48:15;22.90;84.90
40932;DHT22;36257;46.052;12.540;2023-06-05T13:50:40;22.80;85.20
40932;DHT22;36257;46.052;12.540;2023-06-05T13:53:07;22.70;84.90
40932;DHT22;36257;46.052;12.540;2023-06-05T13:55:32;22.60;86.50
40932;DHT22;36257;46.052;12.540;2023-06-05T13:57:58;22.60;87.10
40932;DHT22;36257;46.052;12.540;2023-06-05T14:00:28;22.50;87.30
40932;DHT22;36257;46.052;12.540;2023-06-05T14:41:44;21.50;90.20
40932;DHT22;36257;46.052;12.540;2023-06-05T14:44:10;21.40;90.60
40932;DHT22;36257;46.052;12.540;2023-06-05T14:46:35;21.30;91.20
40932;DHT22;36257;46.052;12.540;2023-06-05T14:49:01;21.10;90.50
40932;DHT22;36257;46.052;12.540;2023-06-05T14:51:27;20.90;92.50
40932;DHT22;36257;46.052;12.540;2023-06-05T14:53:52;20.90;91.40
40932;DHT22;36257;46.052;12.540;2023-06-05T14:56:18;20.90;91.80
40932;DHT22;36257;46.052;12.540;2023-06-05T14:58:44;20.80;91.90
40932;DHT22;36257;46.052;12.540;2023-06-05T15:01:09;20.90;92.10
40932;DHT22;36257;46.052;12.540;2023-06-05T15:03:35;20.80;91.90
40932;DHT22;36257;46.052;12.540;2023-06-05T15:06:01;20.70;93.30
40932;DHT22;36257;46.052;12.540;2023-06-05T15:08:26;20.70;93.40
40932;DHT22;36257;46.052;12.540;2023-06-05T15:10:52;20.60;94.00
40932;DHT22;36257;46.052;12.540;2023-06-05T15:13:17;20.50;93.80
40932;DHT22;36257;46.052;12.540;2023-06-05T15:15:45;20.40;95.00
40932;DHT22;36257;46.052;12.540;2023-06-05T15:18:11;20.40;95.00
40932;DHT22;36257;46.052;12.540;2023-06-05T15:20:36;20.20;95.60
40932;DHT22;36257;46.052;12.540;2023-06-05T15:23:02;20.10;95.60
40932;DHT22;36257;46.052;12.540;2023-06-05T15:25:28;20.10;96.60
40932;DHT22;36257;46.052;12.540;2023-06-05T15:27:53;20.10;95.80
40932;DHT22;36257;46.052;12.540;2023-06-05T15:30:20;20.10;95.50
40932;DHT22;36257;46.052;12.540;2023-06-05T15:32:45;20.10;95.70
40932;DHT22;36257;46.052;12.540;2023-06-05T15:35:11;20.00;93.60
40932;DHT22;36257;46.052;12.540;2023-06-05T15:37:37;19.90;94.50
40932;DHT22;36257;46.052;12.540;2023-06-05T15:40:03;19.90;94.80
40932;DHT22;36257;46.052;12.540;2023-06-05T15:42:34;19.80;94.20
40932;DHT22;36257;46.052;12.540;2023-06-05T15:45:07;19.80;94.90
40932;DHT22;36257;46.052;12.540;2023-06-05T15:47:34;19.80;94.90
40932;DHT22;36257;46.052;12.540;2023-06-05T15:50:00;19.90;94.10
40932;DHT22;36257;46.052;12.540;2023-06-05T15:52:26;19.90;94.00
40932;DHT22;36257;46.052;12.540;2023-06-05T15:54:56;19.90;93.90
40932;DHT22;36257;46.052;12.540;2023-06-05T15:57:23;19.90;93.40
40932;DHT22;36257;46.052;12.540;2023-06-05T15:59:49;19.90;92.90
40932;DHT22;36257;46.052;12.540;2023-06-05T16:02:15;19.80;93.40
40932;DHT22;36257;46.052;12.540;2023-06-05T16:04:41;19.80;93.90
40932;DHT22;36257;46.052;12.540;2023-06-05T16:07:07;19.70;93.50
40932;DHT22;36257;46.052;12.540;2023-06-05T16:09:33;19.80;93.90
40932;DHT22;36257;46.052;12.540;2023-06-05T16:11:58;19.80;93.50
40932;DHT22;36257;46.052;12.540;2023-06-05T16:14:25;19.80;94.20
40932;DHT22;36257;46.052;12.540;2023-06-05T16:16:53;19.90;93.90
40932;DHT22;36257;46.052;12.540;2023-06-05T16:19:18;19.90;94.10
40932;DHT22;36257;46.052;12.540;2023-06-05T16:21:44;19.90;93.60
40932;DHT22;36257;46.052;12.540;2023-06-05T16:24:09;20.00;94.30
40932;DHT22;36257;46.052;12.540;2023-06-05T16:26:35;20.00;93.30
40932;DHT22;36257;46.052;12.540;2023-06-05T16:29:01;20.00;93.40
40932;DHT22;36257;46.052;12.540;2023-06-05T16:31:27;19.90;94.10
40932;DHT22;36257;46.052;12.540;2023-06-05T16:33:52;19.90;94.30
40932;DHT22;36257;46.052;12.540;2023-06-05T16:36:18;19.80;94.70
40932;DHT22;36257;46.052;12.540;2023-06-05T16:38:43;19.80;95.10
40932;DHT22;36257;46.052;12.540;2023-06-05T16:41:09;19.70;95.80
40932;DHT22;36257;46.052;12.540;2023-06-05T16:43:35;19.70;95.80
40932;DHT22;36257;46.052;12.540;2023-06-05T16:46:00;19.60;96.50
40932;DHT22;36257;46.052;12.540;2023-06-05T16:48:26;19.50;97.10
40932;DHT22;36257;46.052;12.540;2023-06-05T16:50:53;19.40;96.60
40932;DHT22;36257;46.052;12.540;2023-06-05T16:53:19;19.30;95.90
40932;DHT22;36257;46.052;12.540;2023-06-05T16:55:45;19.20;95.70
40932;DHT22;36257;46.052;12.540;2023-06-05T16:58:10;19.20;95.50
40932;DHT22;36257;46.052;12.540;2023-06-05T17:00:36;19.20;95.80
40932;DHT22;36257;46.052;12.540;2023-06-05T17:03:02;19.10;95.40
40932;DHT22;36257;46.052;12.540;2023-06-05T17:05:28;19.10;95.50
40932;DHT22;36257;46.052;12.540;2023-06-05T17:07:53;19.20;95.30
40932;DHT22;36257;46.052;12.540;2023-06-05T17:10:19;19.30;95.30
40932;DHT22;36257;46.052;12.540;2023-06-05T17:12:45;19.30;95.60
40932;DHT22;36257;46.052;12.540;2023-06-05T17:15:11;19.40;95.70
40932;DHT22;36257;46.052;12.540;2023-06-05T17:17:38;19.40;95.10
40932;DHT22;36257;46.052;12.540;2023-06-05T17:20:05;19.40;95.10
40932;DHT22;36257;46.052;12.540;2023-06-05T17:22:33;19.40;95.50
40932;DHT22;36257;46.052;12.540;2023-06-05T17:24:59;19.50;95.50
40932;DHT22;36257;46.052;12.540;2023-06-05T17:27:24;19.40;95.60
40932;DHT22;36257;46.052;12.540;2023-06-05T17:29:50;19.40;96.20
40932;DHT22;36257;46.052;12.540;2023-06-05T17:32:15;19.40;96.40
40932;DHT22;36257;46.052;12.540;2023-06-05T17:34:42;19.40;96.60
40932;DHT22;36257;46.052;12.540;2023-06-05T17:37:07;19.40;96.90
40932;DHT22;36257;46.052;12.540;2023-06-05T17:39:33;19.50;96.80
40932;DHT22;36257;46.052;12.540;2023-06-05T17:42:02;19.40;96.70
40932;DHT22;36257;46.052;12.540;2023-06-05T17:44:28;19.40;97.00
40932;DHT22;36257;46.052;12.540;2023-06-05T17:46:54;19.40;97.20
40932;DHT22;36257;46.052;12.540;2023-06-05T17:49:20;19.40;98.00
40932;DHT22;36257;46.052;12.540;2023-06-05T17:51:45;19.30;97.70
40932;DHT22;36257;46.052;12.540;2023-06-05T17:54:12;19.30;97.30
40932;DHT22;36257;46.052;12.540;2023-06-05T17:56:37;19.30;96.80
40932;DHT22;36257;46.052;12.540;2023-06-05T17:59:03;19.30;96.60
40932;DHT22;36257;46.052;12.540;2023-06-05T18:01:29;19.30;96.80
40932;DHT22;36257;46.052;12.540;2023-06-05T18:03:55;19.20;96.80
40932;DHT22;36257;46.052;12.540;2023-06-05T18:06:21;19.20;97.10
40932;DHT22;36257;46.052;12.540;2023-06-05T18:08:46;19.10;97.10
40932;DHT22;36257;46.052;12.540;2023-06-05T18:11:12;19.10;97.00
40932;DHT22;36257;46.052;12.540;2023-06-05T18:13:38;19.10;97.00
40932;DHT22;36257;46.052;12.540;2023-06-05T18:16:04;19.10;96.20
40932;DHT22;36257;46.052;12.540;2023-06-05T18:18:30;19.10;96.10
40932;DHT22;36257;46.052;12.540;2023-06-05T18:20:56;19.00;96.30
40932;DHT22;36257;46.052;12.540;2023-06-05T18:23:22;19.00;96.10
40932;DHT22;36257;46.052;12.540;2023-06-05T18:25:47;19.00;96.10
40932;DHT22;36257;46.052;12.540;2023-06-05T18:28:13;19.00;96.50
40932;DHT22;36257;46.052;12.540;2023-06-05T18:30:38;19.00;96.20
40932;DHT22;36257;46.052;12.540;2023-06-05T18:33:04;19.00;96.30
40932;DHT22;36257;46.052;12.540;2023-06-05T18:35:30;19.00;96.20
40932;DHT22;36257;46.052;12.540;2023-06-05T18:37:56;19.00;96.50
40932;DHT22;36257;46.052;12.540;2023-06-05T18:40:21;19.00;96.70
40932;DHT22;36257;46.052;12.540;2023-06-05T18:42:49;19.00;97.10
40932;DHT22;36257;46.052;12.540;2023-06-05T18:45:14;19.00;97.30
40932;DHT22;36257;46.052;12.540;2023-06-05T18:47:40;19.00;98.20
40932;DHT22;36257;46.052;12.540;2023-06-05T18:50:06;18.90;98.50
40932;DHT22;36257;46.052;12.540;2023-06-05T18:52:32;18.80;99.00
40932;DHT22;36257;46.052;12.540;2023-06-05T18:54:58;18.80;99.40
40932;DHT22;36257;46.052;12.540;2023-06-05T18:57:24;18.70;99.90
40932;DHT22;36257;46.052;12.540;2023-06-05T18:59:50;18.60;99.90
40932;DHT22;36257;46.052;12.540;2023-06-05T19:02:15;18.60;99.90
40932;DHT22;36257;46.052;12.540;2023-06-05T19:17:39;18.60;99.90
40932;DHT22;36257;46.052;12.540;2023-06-05T19:35:50;18.50;99.90
40932;DHT22;36257;46.052;12.540;2023-06-05T20:35:45;18.60;99.90
40932;DHT22;36257;46.052;12.540;2023-06-05T20:38:12;18.60;99.90
40932;DHT22;36257;46.052;12.540;2023-06-05T20:54:45;18.50;99.90
40932;DHT22;36257;46.052;12.540;2023-06-05T21:04:58;18.40;99.90
40932;DHT22;36257;46.052;12.540;2023-06-05T21:07:25;18.30;99.90
40932;DHT22;36257;46.052;12.540;2023-06-05T21:09:51;18.20;99.90
40932;DHT22;36257;46.052;12.540;2023-06-05T21:12:16;18.20;99.90
40932;DHT22;36257;46.052;12.540;2023-06-05T21:17:18;18.30;99.90
40932;DHT22;36257;46.052;12.540;2023-06-05T21:24:55;18.20;99.90
40932;DHT22;36257;46.052;12.540;2023-06-05T21:27:21;18.10;99.90
40932;DHT22;36257;46.052;12.540;2023-06-05T21:34:58;18.20;99.90
40932;DHT22;36257;46.052;12.540;2023-06-05T21:37:24;18.20;99.90
40932;DHT22;36257;46.052;12.540;2023-06-05T21:39:49;18.20;99.90
40932;DHT22;36257;46.052;12.540;2023-06-05T21:42:16;18.20;99.90
40932;DHT22;36257;46.052;12.540;2023-06-05T21:44:44;18.10;99.90
40932;DHT22;36257;46.052;12.540;2023-06-05T21:47:11;18.10;99.90
40932;DHT22;36257;46.052;12.540;2023-06-05T21:49:40;18.10;99.90
40932;DHT22;36257;46.052;12.540;2023-06-05T21:52:07;18.00;99.90
40932;DHT22;36257;46.052;12.540;2023-06-05T21:54:34;18.10;99.90
40932;DHT22;36257;46.052;12.540;2023-06-05T21:57:01;18.00;99.90
40932;DHT22;36257;46.052;12.540;2023-06-05T21:59:30;18.00;99.90
40932;DHT22;36257;46.052;12.540;2023-06-05T22:01:56;17.90;99.90
40932;DHT22;36257;46.052;12.540;2023-06-05T22:04:23;17.90;99.90
40932;DHT22;36257;46.052;12.540;2023-06-05T22:06:48;17.90;99.90
40932;DHT22;36257;46.052;12.540;2023-06-05T22:09:14;17.90;99.90
40932;DHT22;36257;46.052;12.540;2023-06-05T22:11:41;17.90;99.90
40932;DHT22;36257;46.052;12.540;2023-06-05T22:14:09;17.90;99.90
40932;DHT22;36257;46.052;12.540;2023-06-05T22:16:35;17.90;99.90
40932;DHT22;36257;46.052;12.540;2023-06-05T22:19:07;17.90;99.90
40932;DHT22;36257;46.052;12.540;2023-06-05T22:21:35;17.90;99.90
40932;DHT22;36257;46.052;12.540;2023-06-05T22:24:01;17.80;99.90
40932;DHT22;36257;46.052;12.540;2023-06-05T22:26:27;17.80;99.90